sensor_id;sensor_type;location;lat;lon;timestamp;pressure;altitude;pressure_sealevel;temperature;humidity
59009;BME280;44794;42.652;23.318;2022-08-24T00:01:09;94209.09;;;16.98;100.00
59009;BME280;44794;42.652;23.318;2022-08-24T00:03:37;94214.00;;;16.93;100.00
59009;BME280;44794;42.652;23.318;2022-08-24T00:06:04;94217.91;;;16.89;100.00
59009;BME280;44794;42.652;23.318;2022-08-24T00:08:32;94203.53;;;16.93;100.00
59009;BME280;44794;42.652;23.318;2022-08-24T00:10:57;94205.00;;;16.95;100.00
59009;BME280;44794;42.652;23.318;2022-08-24T00:13:24;94209.41;;;16.95;100.00
59009;BME280;44794;42.652;23.318;2022-08-24T00:15:50;94209.06;;;16.90;100.00
59009;BME280;44794;42.652;23.318;2022-08-24T00:18:16;94216.63;;;16.93;100.00
59009;BME280;44794;42.652;23.318;2022-08-24T00:20:42;94216.94;;;16.90;100.00
59009;BME280;44794;42.652;23.318;2022-08-24T00:23:08;94223.50;;;16.86;100.00
59009;BME280;44794;42.652;23.318;2022-08-24T00:25:33;94224.16;;;16.88;100.00
59009;BME280;44794;42.652;23.318;2022-08-24T00:27:59;94223.00;;;16.90;100.00
59009;BME280;44794;42.652;23.318;2022-08-24T00:30:25;94226.25;;;16.84;100.00
59009;BME280;44794;42.652;23.318;2022-08-24T00:32:52;94225.47;;;16.84;100.00
59009;BME280;44794;42.652;23.318;2022-08-24T00:35:19;94229.06;;;16.83;100.00
59009;BME280;44794;42.652;23.318;2022-08-24T00:37:46;94226.72;;;16.80;100.00
59009;BME280;44794;42.652;23.318;2022-08-24T00:40:18;94232.16;;;16.78;100.00
59009;BME280;44794;42.652;23.318;2022-08-24T00:42:46;94228.56;;;16.79;100.00
59009;BME280;44794;42.652;23.318;2022-08-24T00:45:13;94231.34;;;16.78;100.00
59009;BME280;44794;42.652;23.318;2022-08-24T00:47:52;94231.47;;;16.76;100.00
59009;BME280;44794;42.652;23.318;2022-08-24T00:50:25;94234.25;;;16.75;100.00
59009;BME280;44794;42.652;23.318;2022-08-24T00:52:57;94234.78;;;16.78;100.00
59009;BME280;44794;42.652;23.318;2022-08-24T00:55:37;94236.13;;;16.82;100.00
59009;BME280;44794;42.652;23.318;2022-08-24T00:58:08;94228.75;;;16.94;100.00
59009;BME280;44794;42.652;23.318;2022-08-24T01:00:42;94224.88;;;17.06;100.00
59009;BME280;44794;42.652;23.318;2022-08-24T01:03:09;94223.56;;;17.10;100.00
59009;BME280;44794;42.652;23.318;2022-08-24T01:05:37;94217.66;;;17.16;100.00
59009;BME280;44794;42.652;23.318;2022-08-24T01:08:05;94220.28;;;17.16;100.00
59009;BME280;44794;42.652;23.318;2022-08-24T01:10:37;94220.13;;;17.25;100.00
59009;BME280;44794;42.652;23.318;2022-08-24T01:13:06;94216.41;;;17.28;100.00
59009;BME280;44794;42.652;23.318;2022-08-24T01:15:37;94222.47;;;17.28;100.00
59009;BME280;44794;42.652;23.318;2022-08-24T01:18:05;94224.94;;;17.30;100.00
59009;BME280;44794;42.652;23.318;2022-08-24T01:21:02;94227.25;;;17.33;100.00
59009;BME280;44794;42.652;23.318;2022-08-24T01:23:36;94226.44;;;17.40;100.00
59009;BME280;44794;42.652;23.318;2022-08-24T01:26:03;94235.13;;;17.33;100.00
59009;BME280;44794;42.652;23.318;2022-08-24T01:28:30;94238.41;;;17.34;100.00
59009;BME280;44794;42.652;23.318;2022-08-24T01:30:55;94234.47;;;17.38;100.00
59009;BME280;44794;42.652;23.318;2022-08-24T01:33:27;94237.75;;;17.40;100.00
59009;BME280;44794;42.652;23.318;2022-08-24T01:36:02;94245.66;;;17.48;100.00
59009;BME280;44794;42.652;23.318;2022-08-24T01:38:29;94238.78;;;17.55;100.00
59009;BME280;44794;42.652;23.318;2022-08-24T01:40:58;94241.72;;;17.60;100.00
59009;BME280;44794;42.652;23.318;2022-08-24T01:43:25;94249.59;;;17.60;100.00
59009;BME280;44794;42.652;23.318;2022-08-24T01:45:51;94257.47;;;17.60;100.00
59009;BME280;44794;42.652;23.318;2022-08-24T01:48:16;94249.91;;;17.57;100.00
59009;BME280;44794;42.652;23.318;2022-08-24T01:50:42;94252.41;;;17.59;100.00
59009;BME280;44794;42.652;23.318;2022-08-24T01:53:08;94253.84;;;17.53;100.00
59009;BME280;44794;42.652;23.318;2022-08-24T01:55:34;94267.47;;;17.49;100.00
59009;BME280;44794;42.652;23.318;2022-08-24T01:58:00;94265.50;;;17.43;100.00
59009;BME280;44794;42.652;23.318;2022-08-24T02:00:26;94261.38;;;17.40;100.00
59009;BME280;44794;42.652;23.318;2022-08-24T02:02:52;94263.81;;;17.34;100.00
59009;BME280;44794;42.652;23.318;2022-08-24T02:05:17;94270.41;;;17.30;100.00
59009;BME280;44794;42.652;23.318;2022-08-24T02:07:43;94285.75;;;17.25;100.00
59009;BME280;44794;42.652;23.318;2022-08-24T02:10:12;94277.72;;;17.19;100.00
59009;BME280;44794;42.652;23.318;2022-08-24T02:12:40;94287.88;;;17.14;100.00
59009;BME280;44794;42.652;23.318;2022-08-24T02:15:06;94292.13;;;17.07;100.00
59009;BME280;44794;42.652;23.318;2022-08-24T02:17:33;94299.47;;;17.03;100.00
59009;BME280;44794;42.652;23.318;2022-08-24T02:19:59;94305.19;;;16.99;100.00
59009;BME280;44794;42.652;23.318;2022-08-24T02:22:25;94302.88;;;16.96;100.00
59009;BME280;44794;42.652;23.318;2022-08-24T02:24:50;94305.66;;;16.94;100.00
59009;BME280;44794;42.652;23.318;2022-08-24T02:27:16;94313.53;;;16.94;100.00
59009;BME280;44794;42.652;23.318;2022-08-24T02:29:42;94312.69;;;16.94;100.00
59009;BME280;44794;42.652;23.318;2022-08-24T02:32:08;94307.44;;;16.94;100.00
59009;BME280;44794;42.652;23.318;2022-08-24T02:34:33;94312.69;;;16.94;100.00
59009;BME280;44794;42.652;23.318;2022-08-24T02:36:59;94311.88;;;16.93;100.00
59009;BME280;44794;42.652;23.318;2022-08-24T02:39:26;94310.75;;;16.96;100.00
59009;BME280;44794;42.652;23.318;2022-08-24T02:41:51;94319.28;;;16.98;100.00
59009;BME280;44794;42.652;23.318;2022-08-24T02:44:17;94306.50;;;17.03;100.00
59009;BME280;44794;42.652;23.318;2022-08-24T02:46:43;94301.44;;;17.01;100.00
59009;BME280;44794;42.652;23.318;2022-08-24T02:49:08;94312.38;;;16.97;100.00
59009;BME280;44794;42.652;23.318;2022-08-24T02:51:34;94302.72;;;16.97;100.00
59009;BME280;44794;42.652;23.318;2022-08-24T02:54:01;94302.91;;;17.04;100.00
59009;BME280;44794;42.652;23.318;2022-08-24T02:56:28;94310.47;;;17.07;100.00
59009;BME280;44794;42.652;23.318;2022-08-24T02:58:58;94312.91;;;17.00;100.00
59009;BME280;44794;42.652;23.318;2022-08-24T03:01:23;94307.47;;;17.02;100.00
59009;BME280;44794;42.652;23.318;2022-08-24T03:03:49;94307.31;;;16.95;100.00
59009;BME280;44794;42.652;23.318;2022-08-24T03:06:16;94315.81;;;16.89;100.00
59009;BME280;44794;42.652;23.318;2022-08-24T03:08:42;94308.88;;;16.80;100.00
59009;BME280;44794;42.652;23.318;2022-08-24T03:11:09;94309.03;;;16.79;100.00
59009;BME280;44794;42.652;23.318;2022-08-24T03:13:35;94308.19;;;16.78;100.00
59009;BME280;44794;42.652;23.318;2022-08-24T03:16:01;94307.53;;;16.76;100.00
59009;BME280;44794;42.652;23.318;2022-08-24T03:18:27;94310.53;;;16.81;100.00
59009;BME280;44794;42.652;23.318;2022-08-24T03:20:53;94301.00;;;16.80;100.00
59009;BME280;44794;42.652;23.318;2022-08-24T03:23:19;94305.78;;;16.85;100.00
59009;BME280;44794;42.652;23.318;2022-08-24T03:25:45;94300.84;;;16.82;100.00
59009;BME280;44794;42.652;23.318;2022-08-24T03:28:11;94302.78;;;16.80;100.00
59009;BME280;44794;42.652;23.318;2022-08-24T03:30:38;94312.47;;;16.79;100.00
59009;BME280;44794;42.652;23.318;2022-08-24T03:33:04;94303.81;;;16.79;100.00
59009;BME280;44794;42.652;23.318;2022-08-24T03:35:30;94313.44;;;16.78;100.00
59009;BME280;44794;42.652;23.318;2022-08-24T03:37:55;94311.66;;;16.79;100.00
59009;BME280;44794;42.652;23.318;2022-08-24T03:40:21;94308.19;;;16.78;100.00
59009;BME280;44794;42.652;23.318;2022-08-24T03:42:48;94314.28;;;16.79;100.00
59009;BME280;44794;42.652;23.318;2022-08-24T03:45:13;94314.28;;;16.79;100.00
59009;BME280;44794;42.652;23.318;2022-08-24T03:47:39;94321.16;;;16.80;100.00
59009;BME280;44794;42.652;23.318;2022-08-24T03:50:05;94328.88;;;16.81;100.00
59009;BME280;44794;42.652;23.318;2022-08-24T03:52:32;94325.13;;;16.84;100.00
59009;BME280;44794;42.652;23.318;2022-08-24T03:55:00;94325.63;;;16.87;100.00
59009;BME280;44794;42.652;23.318;2022-08-24T03:57:26;94323.34;;;16.92;100.00
59009;BME280;44794;42.652;23.318;2022-08-24T03:59:51;94329.44;;;17.01;100.00
59009;BME280;44794;42.652;23.318;2022-08-24T04:02:17;94334.44;;;17.12;100.00
59009;BME280;44794;42.652;23.318;2022-08-24T04:04:43;94328.22;;;17.13;100.00
59009;BME280;44794;42.652;23.318;2022-08-24T04:07:08;94332.47;;;17.22;100.00
59009;BME280;44794;42.652;23.318;2022-08-24T04:09:34;94333.53;;;17.29;100.00
59009;BME280;44794;42.652;23.318;2022-08-24T04:11:59;94332.41;;;17.31;100.00
59009;BME280;44794;42.652;23.318;2022-08-24T04:14:25;94341.28;;;17.38;100.00
59009;BME280;44794;42.652;23.318;2022-08-24T04:16:51;94344.44;;;17.41;100.00
59009;BME280;44794;42.652;23.318;2022-08-24T04:19:16;94347.03;;;17.49;100.00
59009;BME280;44794;42.652;23.318;2022-08-24T04:21:41;94343.81;;;17.55;100.00
59009;BME280;44794;42.652;23.318;2022-08-24T04:24:09;94353.31;;;17.56;100.00
59009;BME280;44794;42.652;23.318;2022-08-24T04:26:35;94364.34;;;17.68;100.00
59009;BME280;44794;42.652;23.318;2022-08-24T04:29:01;94362.72;;;17.75;100.00
59009;BME280;44794;42.652;23.318;2022-08-24T04:31:26;94369.81;;;17.82;100.00
59009;BME280;44794;42.652;23.318;2022-08-24T04:33:53;94374.56;;;17.87;100.00
59009;BME280;44794;42.652;23.318;2022-08-24T04:36:20;94385.41;;;17.92;100.00
59009;BME280;44794;42.652;23.318;2022-08-24T04:38:46;94393.97;;;17.94;100.00
59009;BME280;44794;42.652;23.318;2022-08-24T04:41:13;94396.47;;;18.11;100.00
59009;BME280;44794;42.652;23.318;2022-08-24T04:43:40;94397.13;;;18.21;100.00
59009;BME280;44794;42.652;23.318;2022-08-24T04:46:10;94399.78;;;18.37;100.00
59009;BME280;44794;42.652;23.318;2022-08-24T04:48:36;94400.94;;;18.42;100.00
59009;BME280;44794;42.652;23.318;2022-08-24T04:51:04;94397.31;;;18.51;100.00
59009;BME280;44794;42.652;23.318;2022-08-24T04:53:32;94402.75;;;18.74;100.00
59009;BME280;44794;42.652;23.318;2022-08-24T04:55:58;94412.25;;;18.90;99.46
59009;BME280;44794;42.652;23.318;2022-08-24T04:58:24;94420.13;;;18.98;97.63
59009;BME280;44794;42.652;23.318;2022-08-24T05:00:50;94429.00;;;19.05;95.52
59009;BME280;44794;42.652;23.318;2022-08-24T05:03:16;94424.38;;;19.23;94.55
59009;BME280;44794;42.652;23.318;2022-08-24T05:05:44;94430.75;;;19.45;93.75
59009;BME280;44794;42.652;23.318;2022-08-24T05:08:11;94429.06;;;19.52;92.62
59009;BME280;44794;42.652;23.318;2022-08-24T05:10:41;94428.47;;;19.72;92.70
59009;BME280;44794;42.652;23.318;2022-08-24T05:13:07;94428.59;;;19.86;91.56
59009;BME280;44794;42.652;23.318;2022-08-24T05:15:33;94439.94;;;19.87;90.22
59009;BME280;44794;42.652;23.318;2022-08-24T05:18:00;94438.63;;;19.91;88.22
59009;BME280;44794;42.652;23.318;2022-08-24T05:20:26;94441.03;;;20.08;88.39
59009;BME280;44794;42.652;23.318;2022-08-24T05:22:52;94444.03;;;20.28;87.15
59009;BME280;44794;42.652;23.318;2022-08-24T05:25:19;94448.97;;;20.53;86.21
59009;BME280;44794;42.652;23.318;2022-08-24T05:27:44;94448.50;;;20.72;85.62
59009;BME280;44794;42.652;23.318;2022-08-24T05:30:10;94446.78;;;20.87;84.08
59009;BME280;44794;42.652;23.318;2022-08-24T05:32:36;94450.38;;;21.08;82.31
59009;BME280;44794;42.652;23.318;2022-08-24T05:35:03;94457.03;;;21.18;82.15
59009;BME280;44794;42.652;23.318;2022-08-24T05:37:30;94450.91;;;21.55;80.19
59009;BME280;44794;42.652;23.318;2022-08-24T05:39:56;94453.09;;;21.94;77.92
59009;BME280;44794;42.652;23.318;2022-08-24T05:42:21;94452.00;;;22.24;75.05
59009;BME280;44794;42.652;23.318;2022-08-24T05:44:47;94453.25;;;22.78;70.81
59009;BME280;44794;42.652;23.318;2022-08-24T05:47:12;94458.69;;;23.66;67.04
59009;BME280;44794;42.652;23.318;2022-08-24T05:49:38;94460.75;;;24.05;64.69
59009;BME280;44794;42.652;23.318;2022-08-24T05:52:04;94458.34;;;24.63;63.89
59009;BME280;44794;42.652;23.318;2022-08-24T05:54:29;94466.03;;;25.50;59.36
59009;BME280;44794;42.652;23.318;2022-08-24T05:56:55;94463.31;;;24.98;59.25
59009;BME280;44794;42.652;23.318;2022-08-24T05:59:21;94466.63;;;25.06;58.15
59009;BME280;44794;42.652;23.318;2022-08-24T06:01:47;94463.78;;;25.14;59.97
59009;BME280;44794;42.652;23.318;2022-08-24T06:04:13;94465.22;;;25.30;57.11
59009;BME280;44794;42.652;23.318;2022-08-24T06:06:39;94460.13;;;25.41;57.33
59009;BME280;44794;42.652;23.318;2022-08-24T06:09:05;94467.66;;;25.18;56.95
59009;BME280;44794;42.652;23.318;2022-08-24T06:11:37;94467.88;;;25.23;58.67
59009;BME280;44794;42.652;23.318;2022-08-24T06:14:07;94466.66;;;25.19;58.50
59009;BME280;44794;42.652;23.318;2022-08-24T06:16:38;94467.81;;;26.01;55.58
59009;BME280;44794;42.652;23.318;2022-08-24T06:19:05;94468.25;;;25.91;54.89
59009;BME280;44794;42.652;23.318;2022-08-24T06:21:31;94469.06;;;25.98;56.12
59009;BME280;44794;42.652;23.318;2022-08-24T06:23:57;94460.94;;;25.48;56.85
59009;BME280;44794;42.652;23.318;2022-08-24T06:26:23;94470.75;;;25.54;56.33
59009;BME280;44794;42.652;23.318;2022-08-24T06:29:07;94476.16;;;26.24;55.45
59009;BME280;44794;42.652;23.318;2022-08-24T06:31:43;94467.91;;;26.88;53.53
59009;BME280;44794;42.652;23.318;2022-08-24T06:34:10;94466.88;;;27.75;51.19
59009;BME280;44794;42.652;23.318;2022-08-24T06:36:36;94481.25;;;28.52;48.95
59009;BME280;44794;42.652;23.318;2022-08-24T06:39:02;94478.78;;;29.16;47.34
59009;BME280;44794;42.652;23.318;2022-08-24T06:41:28;94472.66;;;29.79;46.05
59009;BME280;44794;42.652;23.318;2022-08-24T06:43:54;94474.47;;;29.15;46.66
59009;BME280;44794;42.652;23.318;2022-08-24T06:46:20;94474.38;;;28.81;48.16
59009;BME280;44794;42.652;23.318;2022-08-24T06:48:46;94485.13;;;28.56;48.67
59009;BME280;44794;42.652;23.318;2022-08-24T06:51:15;94480.06;;;28.66;48.41
59009;BME280;44794;42.652;23.318;2022-08-24T06:53:41;94484.31;;;29.84;45.86
59009;BME280;44794;42.652;23.318;2022-08-24T06:56:07;94493.53;;;30.23;44.02
59009;BME280;44794;42.652;23.318;2022-08-24T06:58:33;94483.06;;;30.33;43.27
59009;BME280;44794;42.652;23.318;2022-08-24T07:03:34;94494.63;;;29.47;44.40
59009;BME280;44794;42.652;23.318;2022-08-24T07:06:01;94495.38;;;28.41;45.70
59009;BME280;44794;42.652;23.318;2022-08-24T07:08:27;94496.09;;;28.30;47.81
59009;BME280;44794;42.652;23.318;2022-08-24T07:10:52;94502.47;;;28.65;48.48
59009;BME280;44794;42.652;23.318;2022-08-24T07:13:18;94498.94;;;28.53;47.13
59009;BME280;44794;42.652;23.318;2022-08-24T07:15:43;94494.19;;;27.95;48.44
59009;BME280;44794;42.652;23.318;2022-08-24T07:18:16;94499.91;;;27.50;49.31
59009;BME280;44794;42.652;23.318;2022-08-24T07:20:42;94500.69;;;27.57;50.58
59009;BME280;44794;42.652;23.318;2022-08-24T07:23:09;94506.72;;;27.95;49.55
59009;BME280;44794;42.652;23.318;2022-08-24T07:25:39;94510.25;;;26.65;51.49
59009;BME280;44794;42.652;23.318;2022-08-24T07:28:05;94509.94;;;26.30;53.24
59009;BME280;44794;42.652;23.318;2022-08-24T07:30:30;94514.84;;;26.46;53.13
59009;BME280;44794;42.652;23.318;2022-08-24T07:32:56;94503.41;;;26.82;53.09
59009;BME280;44794;42.652;23.318;2022-08-24T07:35:23;94504.16;;;27.02;52.06
59009;BME280;44794;42.652;23.318;2022-08-24T07:37:49;94500.31;;;26.85;52.55
59009;BME280;44794;42.652;23.318;2022-08-24T07:40:15;94496.88;;;26.09;53.47
59009;BME280;44794;42.652;23.318;2022-08-24T07:42:41;94497.19;;;27.01;53.34
59009;BME280;44794;42.652;23.318;2022-08-24T07:45:07;94497.94;;;27.39;51.73
59009;BME280;44794;42.652;23.318;2022-08-24T07:47:33;94506.56;;;27.90;51.47
59009;BME280;44794;42.652;23.318;2022-08-24T07:49:59;94496.63;;;27.48;48.74
59009;BME280;44794;42.652;23.318;2022-08-24T07:52:25;94495.91;;;27.10;49.82
59009;BME280;44794;42.652;23.318;2022-08-24T07:54:50;94502.69;;;27.06;50.09
59009;BME280;44794;42.652;23.318;2022-08-24T07:57:17;94487.53;;;26.94;51.61
59009;BME280;44794;42.652;23.318;2022-08-24T07:59:42;94488.28;;;27.14;51.37
59009;BME280;44794;42.652;23.318;2022-08-24T08:02:08;94492.06;;;26.93;50.37
59009;BME280;44794;42.652;23.318;2022-08-24T08:04:35;94487.81;;;27.23;49.86
59009;BME280;44794;42.652;23.318;2022-08-24T08:07:01;94473.53;;;27.60;49.61
59009;BME280;44794;42.652;23.318;2022-08-24T08:09:27;94482.00;;;27.57;49.57
59009;BME280;44794;42.652;23.318;2022-08-24T08:11:53;94483.56;;;27.89;49.03
59009;BME280;44794;42.652;23.318;2022-08-24T08:14:18;94474.78;;;27.64;47.50
59009;BME280;44794;42.652;23.318;2022-08-24T08:16:44;94474.28;;;27.73;48.10
59009;BME280;44794;42.652;23.318;2022-08-24T08:19:10;94471.50;;;27.07;48.76
59009;BME280;44794;42.652;23.318;2022-08-24T08:21:47;94475.25;;;26.93;49.11
59009;BME280;44794;42.652;23.318;2022-08-24T08:24:32;94480.00;;;26.84;51.00
59009;BME280;44794;42.652;23.318;2022-08-24T08:26:57;94475.53;;;26.78;51.25
59009;BME280;44794;42.652;23.318;2022-08-24T08:29:24;94474.13;;;26.69;51.17
59009;BME280;44794;42.652;23.318;2022-08-24T08:31:50;94471.66;;;26.74;51.42
59009;BME280;44794;42.652;23.318;2022-08-24T08:34:16;94470.78;;;27.24;50.25
59009;BME280;44794;42.652;23.318;2022-08-24T08:36:43;94480.34;;;27.01;50.62
59009;BME280;44794;42.652;23.318;2022-08-24T08:39:11;94467.34;;;27.17;50.29
59009;BME280;44794;42.652;23.318;2022-08-24T08:56:15;94468.22;;;27.84;47.90
59009;BME280;44794;42.652;23.318;2022-08-24T08:59:05;94467.78;;;28.05;48.73
59009;BME280;44794;42.652;23.318;2022-08-24T09:18:08;94479.19;;;28.90;44.62
59009;BME280;44794;42.652;23.318;2022-08-24T09:26:09;94472.06;;;28.95;44.78
59009;BME280;44794;42.652;23.318;2022-08-24T09:28:44;94476.44;;;28.79;44.18
59009;BME280;44794;42.652;23.318;2022-08-24T09:36:54;94457.47;;;27.91;47.37
59009;BME280;44794;42.652;23.318;2022-08-24T09:45:20;94453.31;;;27.22;50.19
59009;BME280;44794;42.652;23.318;2022-08-24T09:48:07;94441.38;;;26.62;50.66
59009;BME280;44794;42.652;23.318;2022-08-24T10:15:40;94404.44;;;26.72;49.73
59009;BME280;44794;42.652;23.318;2022-08-24T10:18:41;94396.19;;;26.80;49.53
59009;BME280;44794;42.652;23.318;2022-08-24T10:21:19;94389.09;;;26.99;48.71
59009;BME280;44794;42.652;23.318;2022-08-24T10:24:17;94390.84;;;26.80;47.81
59009;BME280;44794;42.652;23.318;2022-08-24T10:29:36;94388.47;;;26.66;48.95
59009;BME280;44794;42.652;23.318;2022-08-24T10:35:13;94393.09;;;27.14;48.84
59009;BME280;44794;42.652;23.318;2022-08-24T10:47:22;94394.75;;;28.00;45.48
59009;BME280;44794;42.652;23.318;2022-08-24T10:50:00;94393.53;;;27.96;45.27
59009;BME280;44794;42.652;23.318;2022-08-24T10:52:47;94391.63;;;27.85;45.16
59009;BME280;44794;42.652;23.318;2022-08-24T10:55:18;94389.09;;;27.90;46.13
59009;BME280;44794;42.652;23.318;2022-08-24T11:00:47;94391.94;;;27.04;48.22
59009;BME280;44794;42.652;23.318;2022-08-24T11:03:21;94386.59;;;27.28;47.92
59009;BME280;44794;42.652;23.318;2022-08-24T11:05:53;94389.97;;;27.84;48.08
59009;BME280;44794;42.652;23.318;2022-08-24T11:08:26;94385.06;;;28.16;45.90
59009;BME280;44794;42.652;23.318;2022-08-24T11:11:26;94396.22;;;28.49;43.64
59009;BME280;44794;42.652;23.318;2022-08-24T11:16:42;94373.13;;;28.84;43.33
59009;BME280;44794;42.652;23.318;2022-08-24T11:19:29;94384.16;;;29.63;41.50
59009;BME280;44794;42.652;23.318;2022-08-24T11:22:00;94383.72;;;29.54;42.43
59009;BME280;44794;42.652;23.318;2022-08-24T11:32:45;94374.38;;;28.82;44.09
59009;BME280;44794;42.652;23.318;2022-08-24T11:37:42;94361.69;;;28.12;45.37
59009;BME280;44794;42.652;23.318;2022-08-24T11:40:09;94363.06;;;28.39;46.71
59009;BME280;44794;42.652;23.318;2022-08-24T11:50:38;94355.91;;;28.15;46.12
59009;BME280;44794;42.652;23.318;2022-08-24T11:56:01;94355.84;;;28.04;47.37
59009;BME280;44794;42.652;23.318;2022-08-24T12:13:07;94345.78;;;26.42;52.53
59009;BME280;44794;42.652;23.318;2022-08-24T12:15:59;94352.25;;;26.58;53.12
59009;BME280;44794;42.652;23.318;2022-08-24T12:21:20;94355.78;;;26.53;52.21
59009;BME280;44794;42.652;23.318;2022-08-24T12:24:02;94345.56;;;26.74;52.32
59009;BME280;44794;42.652;23.318;2022-08-24T12:27:36;94335.78;;;27.23;50.48
59009;BME280;44794;42.652;23.318;2022-08-24T12:35:01;94343.19;;;27.21;51.96
59009;BME280;44794;42.652;23.318;2022-08-24T12:40:29;94331.09;;;26.63;53.25
59009;BME280;44794;42.652;23.318;2022-08-24T12:43:00;94335.34;;;26.47;53.43
59009;BME280;44794;42.652;23.318;2022-08-24T12:45:28;94338.38;;;26.13;54.39
59009;BME280;44794;42.652;23.318;2022-08-24T13:04:43;94334.38;;;25.91;54.43
59009;BME280;44794;42.652;23.318;2022-08-24T13:17:48;94378.03;;;26.21;53.87
59009;BME280;44794;42.652;23.318;2022-08-24T13:20:28;94362.31;;;25.56;56.50
59009;BME280;44794;42.652;23.318;2022-08-24T13:28:28;94375.84;;;25.16;57.12
59009;BME280;44794;42.652;23.318;2022-08-24T13:31:01;94363.56;;;25.34;56.45
59009;BME280;44794;42.652;23.318;2022-08-24T13:33:36;94374.19;;;25.47;56.73
59009;BME280;44794;42.652;23.318;2022-08-24T13:47:58;94354.16;;;24.67;60.08
59009;BME280;44794;42.652;23.318;2022-08-24T14:07:05;94349.03;;;25.04;58.13
59009;BME280;44794;42.652;23.318;2022-08-24T14:15:12;94328.78;;;25.36;56.99
59009;BME280;44794;42.652;23.318;2022-08-24T14:21:01;94342.63;;;25.70;56.71
59009;BME280;44794;42.652;23.318;2022-08-24T14:39:35;94359.34;;;26.40;52.78
59009;BME280;44794;42.652;23.318;2022-08-24T14:42:16;94352.66;;;26.18;54.05
59009;BME280;44794;42.652;23.318;2022-08-24T14:44:49;94358.84;;;26.12;55.03
59009;BME280;44794;42.652;23.318;2022-08-24T14:48:19;94363.09;;;25.76;55.64
59009;BME280;44794;42.652;23.318;2022-08-24T14:50:39;94365.22;;;25.35;57.19
59009;BME280;44794;42.652;23.318;2022-08-24T15:01:25;94356.22;;;25.10;57.77
59009;BME280;44794;42.652;23.318;2022-08-24T15:04:01;94350.31;;;25.21;58.08
59009;BME280;44794;42.652;23.318;2022-08-24T15:06:49;94342.31;;;25.08;58.11
59009;BME280;44794;42.652;23.318;2022-08-24T15:11:48;94339.84;;;24.88;58.01
59009;BME280;44794;42.652;23.318;2022-08-24T15:17:11;94351.28;;;24.56;60.06
59009;BME280;44794;42.652;23.318;2022-08-24T15:22:37;94360.06;;;24.56;60.59
59009;BME280;44794;42.652;23.318;2022-08-24T15:25:33;94366.84;;;24.59;60.48
59009;BME280;44794;42.652;23.318;2022-08-24T15:30:35;94376.38;;;24.47;60.53
59009;BME280;44794;42.652;23.318;2022-08-24T15:33:11;94371.69;;;24.49;60.88
59009;BME280;44794;42.652;23.318;2022-08-24T15:35:43;94370.91;;;24.48;60.96
59009;BME280;44794;42.652;23.318;2022-08-24T15:38:22;94375.78;;;24.45;61.21
59009;BME280;44794;42.652;23.318;2022-08-24T15:41:23;94369.84;;;24.43;61.85
59009;BME280;44794;42.652;23.318;2022-08-24T15:44:15;94373.84;;;24.26;62.26
59009;BME280;44794;42.652;23.318;2022-08-24T15:46:57;94370.78;;;24.16;62.84
59009;BME280;44794;42.652;23.318;2022-08-24T15:49:35;94371.81;;;24.15;62.44
59009;BME280;44794;42.652;23.318;2022-08-24T15:52:36;94362.19;;;24.14;62.52
59009;BME280;44794;42.652;23.318;2022-08-24T15:55:04;94371.38;;;24.18;62.77
59009;BME280;44794;42.652;23.318;2022-08-24T15:57:36;94372.22;;;24.19;62.53
59009;BME280;44794;42.652;23.318;2022-08-24T16:00:12;94385.88;;;24.16;62.41
59009;BME280;44794;42.652;23.318;2022-08-24T16:02:38;94386.28;;;24.13;63.09
59009;BME280;44794;42.652;23.318;2022-08-24T16:18:15;94384.97;;;23.89;64.82
59009;BME280;44794;42.652;23.318;2022-08-24T16:20:41;94384.72;;;23.84;65.14
59009;BME280;44794;42.652;23.318;2022-08-24T16:23:10;94399.00;;;23.83;65.24
59009;BME280;44794;42.652;23.318;2022-08-24T16:25:42;94392.53;;;23.86;65.34
59009;BME280;44794;42.652;23.318;2022-08-24T16:28:32;94395.97;;;23.86;65.19
59009;BME280;44794;42.652;23.318;2022-08-24T16:31:00;94401.28;;;23.86;65.30
59009;BME280;44794;42.652;23.318;2022-08-24T16:33:44;94400.25;;;23.87;65.60
59009;BME280;44794;42.652;23.318;2022-08-24T16:36:13;94395.91;;;23.73;65.53
59009;BME280;44794;42.652;23.318;2022-08-24T16:38:45;94381.66;;;23.74;66.10
59009;BME280;44794;42.652;23.318;2022-08-24T16:41:11;94376.78;;;23.84;65.73
59009;BME280;44794;42.652;23.318;2022-08-24T16:43:38;94385.56;;;23.85;65.25
59009;BME280;44794;42.652;23.318;2022-08-24T16:46:07;94376.91;;;23.70;65.47
59009;BME280;44794;42.652;23.318;2022-08-24T16:48:34;94378.81;;;23.48;66.24
59009;BME280;44794;42.652;23.318;2022-08-24T16:50:59;94378.88;;;23.28;67.13
59009;BME280;44794;42.652;23.318;2022-08-24T16:53:25;94376.44;;;23.26;67.03
59009;BME280;44794;42.652;23.318;2022-08-24T16:55:51;94371.03;;;23.13;67.63
59009;BME280;44794;42.652;23.318;2022-08-24T16:58:17;94385.28;;;23.06;68.01
59009;BME280;44794;42.652;23.318;2022-08-24T17:00:43;94397.34;;;22.94;68.85
59009;BME280;44794;42.652;23.318;2022-08-24T17:03:11;94406.19;;;22.80;69.57
59009;BME280;44794;42.652;23.318;2022-08-24T17:05:37;94413.09;;;22.74;70.01
59009;BME280;44794;42.652;23.318;2022-08-24T17:08:02;94410.63;;;22.73;70.35
59009;BME280;44794;42.652;23.318;2022-08-24T17:10:28;94410.56;;;22.67;70.28
59009;BME280;44794;42.652;23.318;2022-08-24T17:12:54;94406.47;;;22.64;70.16
59009;BME280;44794;42.652;23.318;2022-08-24T17:15:20;94420.72;;;22.63;70.41
59009;BME280;44794;42.652;23.318;2022-08-24T17:17:54;94417.06;;;22.64;70.21
59009;BME280;44794;42.652;23.318;2022-08-24T17:20:20;94429.03;;;22.60;70.48